sensor_id;sensor_type;location;lat;lon;timestamp;temperature;humidity
12125;DHT22;6126;57.908;16.490;2023-04-24T00:00:27;8.20;87.60
12125;DHT22;6126;57.908;16.490;2023-04-24T00:02:53;7.70;87.10
12125;DHT22;6126;57.908;16.490;2023-04-24T00:05:22;7.60;87.30
12125;DHT22;6126;57.908;16.490;2023-04-24T00:07:49;7.50;88.30
12125;DHT22;6126;57.908;16.490;2023-04-24T00:10:19;7.30;88.40
12125;DHT22;6126;57.908;16.490;2023-04-24T00:12:45;7.30;89.20
12125;DHT22;6126;57.908;16.490;2023-04-24T00:15:11;7.20;89.60
12125;DHT22;6126;57.908;16.490;2023-04-24T00:17:38;7.20;89.60
12125;DHT22;6126;57.908;16.490;2023-04-24T00:20:04;7.10;89.40
12125;DHT22;6126;57.908;16.490;2023-04-24T00:22:32;7.00;88.80
12125;DHT22;6126;57.908;16.490;2023-04-24T00:24:58;6.90;89.40
12125;DHT22;6126;57.908;16.490;2023-04-24T00:27:24;6.80;89.50
12125;DHT22;6126;57.908;16.490;2023-04-24T00:29:50;6.80;89.60
12125;DHT22;6126;57.908;16.490;2023-04-24T00:32:16;6.80;89.10
12125;DHT22;6126;57.908;16.490;2023-04-24T00:34:43;6.70;89.50
12125;DHT22;6126;57.908;16.490;2023-04-24T00:37:09;6.50;89.40
12125;DHT22;6126;57.908;16.490;2023-04-24T00:39:34;6.60;89.50
12125;DHT22;6126;57.908;16.490;2023-04-24T00:42:00;6.70;89.80
12125;DHT22;6126;57.908;16.490;2023-04-24T00:44:27;6.80;90.00
12125;DHT22;6126;57.908;16.490;2023-04-24T00:46:54;6.70;90.10
12125;DHT22;6126;57.908;16.490;2023-04-24T00:49:21;6.70;90.10
12125;DHT22;6126;57.908;16.490;2023-04-24T00:51:48;6.80;90.20
12125;DHT22;6126;57.908;16.490;2023-04-24T00:54:15;6.40;90.00
12125;DHT22;6126;57.908;16.490;2023-04-24T00:56:42;6.50;89.50
12125;DHT22;6126;57.908;16.490;2023-04-24T00:59:09;6.60;90.00
12125;DHT22;6126;57.908;16.490;2023-04-24T01:01:35;6.70;90.10
12125;DHT22;6126;57.908;16.490;2023-04-24T01:04:01;6.50;90.00
12125;DHT22;6126;57.908;16.490;2023-04-24T01:06:28;6.30;90.00
12125;DHT22;6126;57.908;16.490;2023-04-24T01:08:57;6.50;90.10
12125;DHT22;6126;57.908;16.490;2023-04-24T01:11:25;6.30;90.20
12125;DHT22;6126;57.908;16.490;2023-04-24T01:13:52;6.20;90.20
12125;DHT22;6126;57.908;16.490;2023-04-24T01:16:18;6.30;90.30
12125;DHT22;6126;57.908;16.490;2023-04-24T01:18:46;6.10;90.20
12125;DHT22;6126;57.908;16.490;2023-04-24T01:21:16;6.20;90.30
12125;DHT22;6126;57.908;16.490;2023-04-24T01:23:44;6.10;90.30
12125;DHT22;6126;57.908;16.490;2023-04-24T01:26:12;6.10;90.30
12125;DHT22;6126;57.908;16.490;2023-04-24T01:28:40;6.00;90.20
12125;DHT22;6126;57.908;16.490;2023-04-24T01:31:07;6.20;90.30
12125;DHT22;6126;57.908;16.490;2023-04-24T01:33:33;6.00;90.70
12125;DHT22;6126;57.908;16.490;2023-04-24T01:35:59;6.10;90.40
12125;DHT22;6126;57.908;16.490;2023-04-24T01:38:26;6.20;90.40
12125;DHT22;6126;57.908;16.490;2023-04-24T01:40:52;6.10;90.40
12125;DHT22;6126;57.908;16.490;2023-04-24T01:43:19;6.10;90.50
12125;DHT22;6126;57.908;16.490;2023-04-24T01:45:45;5.90;90.40
12125;DHT22;6126;57.908;16.490;2023-04-24T01:48:12;6.00;90.40
12125;DHT22;6126;57.908;16.490;2023-04-24T01:50:38;6.10;90.50
12125;DHT22;6126;57.908;16.490;2023-04-24T01:53:04;5.90;90.50
12125;DHT22;6126;57.908;16.490;2023-04-24T01:55:30;5.90;90.60
12125;DHT22;6126;57.908;16.490;2023-04-24T01:57:57;6.00;90.60
12125;DHT22;6126;57.908;16.490;2023-04-24T02:00:25;5.90;90.60
12125;DHT22;6126;57.908;16.490;2023-04-24T02:02:51;5.90;90.60
12125;DHT22;6126;57.908;16.490;2023-04-24T02:05:17;6.00;90.70
12125;DHT22;6126;57.908;16.490;2023-04-24T02:07:43;6.10;90.80
12125;DHT22;6126;57.908;16.490;2023-04-24T02:10:09;5.90;90.80
12125;DHT22;6126;57.908;16.490;2023-04-24T02:12:36;6.40;90.90
12125;DHT22;6126;57.908;16.490;2023-04-24T02:15:02;6.10;90.70
12125;DHT22;6126;57.908;16.490;2023-04-24T02:17:28;6.10;90.70
12125;DHT22;6126;57.908;16.490;2023-04-24T02:19:54;6.20;90.80
12125;DHT22;6126;57.908;16.490;2023-04-24T02:22:20;6.00;90.70
12125;DHT22;6126;57.908;16.490;2023-04-24T02:24:46;5.90;90.70
12125;DHT22;6126;57.908;16.490;2023-04-24T02:27:12;5.80;90.70
12125;DHT22;6126;57.908;16.490;2023-04-24T02:29:38;5.70;90.80
12125;DHT22;6126;57.908;16.490;2023-04-24T02:32:04;6.10;91.10
12125;DHT22;6126;57.908;16.490;2023-04-24T02:34:30;6.00;91.00
12125;DHT22;6126;57.908;16.490;2023-04-24T02:36:56;5.90;91.00
12125;DHT22;6126;57.908;16.490;2023-04-24T02:39:22;5.90;90.70
12125;DHT22;6126;57.908;16.490;2023-04-24T02:41:47;5.80;90.90
12125;DHT22;6126;57.908;16.490;2023-04-24T02:44:13;6.10;91.10
12125;DHT22;6126;57.908;16.490;2023-04-24T02:46:39;5.80;90.90
12125;DHT22;6126;57.908;16.490;2023-04-24T02:49:07;5.80;91.00
12125;DHT22;6126;57.908;16.490;2023-04-24T02:51:33;6.00;91.10
12125;DHT22;6126;57.908;16.490;2023-04-24T02:53:59;6.00;91.20
12125;DHT22;6126;57.908;16.490;2023-04-24T02:56:25;6.00;91.20
12125;DHT22;6126;57.908;16.490;2023-04-24T02:58:51;6.10;91.20
12125;DHT22;6126;57.908;16.490;2023-04-24T03:01:16;6.30;91.20
12125;DHT22;6126;57.908;16.490;2023-04-24T03:03:43;6.00;91.10
12125;DHT22;6126;57.908;16.490;2023-04-24T03:06:09;6.20;91.10
12125;DHT22;6126;57.908;16.490;2023-04-24T03:08:36;6.20;91.20
12125;DHT22;6126;57.908;16.490;2023-04-24T03:11:02;6.20;91.20
12125;DHT22;6126;57.908;16.490;2023-04-24T03:13:29;6.30;91.20
12125;DHT22;6126;57.908;16.490;2023-04-24T03:15:54;6.30;91.20
12125;DHT22;6126;57.908;16.490;2023-04-24T03:18:20;6.30;91.20
12125;DHT22;6126;57.908;16.490;2023-04-24T03:20:46;6.50;91.20
12125;DHT22;6126;57.908;16.490;2023-04-24T03:23:13;6.60;91.20
12125;DHT22;6126;57.908;16.490;2023-04-24T03:25:38;6.40;91.10
12125;DHT22;6126;57.908;16.490;2023-04-24T03:28:05;6.20;91.00
12125;DHT22;6126;57.908;16.490;2023-04-24T03:30:31;6.50;91.20
12125;DHT22;6126;57.908;16.490;2023-04-24T03:32:56;6.20;90.80
12125;DHT22;6126;57.908;16.490;2023-04-24T03:35:22;6.50;91.20
12125;DHT22;6126;57.908;16.490;2023-04-24T03:37:48;6.60;91.30
12125;DHT22;6126;57.908;16.490;2023-04-24T03:40:14;6.50;91.30
12125;DHT22;6126;57.908;16.490;2023-04-24T03:42:40;6.30;91.10
12125;DHT22;6126;57.908;16.490;2023-04-24T03:45:07;6.30;91.10
12125;DHT22;6126;57.908;16.490;2023-04-24T03:47:33;6.60;91.30
12125;DHT22;6126;57.908;16.490;2023-04-24T03:49:59;6.30;91.20
12125;DHT22;6126;57.908;16.490;2023-04-24T03:52:25;6.60;91.30
12125;DHT22;6126;57.908;16.490;2023-04-24T03:54:51;6.30;91.20
12125;DHT22;6126;57.908;16.490;2023-04-24T03:57:17;6.50;91.30
12125;DHT22;6126;57.908;16.490;2023-04-24T03:59:43;6.60;91.30
12125;DHT22;6126;57.908;16.490;2023-04-24T04:02:09;6.60;91.30
12125;DHT22;6126;57.908;16.490;2023-04-24T04:04:35;6.60;91.30
12125;DHT22;6126;57.908;16.490;2023-04-24T04:07:00;6.50;91.20
12125;DHT22;6126;57.908;16.490;2023-04-24T04:09:28;6.40;91.20
12125;DHT22;6126;57.908;16.490;2023-04-24T04:11:54;6.80;91.40
12125;DHT22;6126;57.908;16.490;2023-04-24T04:14:21;6.60;91.30
12125;DHT22;6126;57.908;16.490;2023-04-24T04:16:48;6.80;91.40
12125;DHT22;6126;57.908;16.490;2023-04-24T04:19:14;6.50;91.30
12125;DHT22;6126;57.908;16.490;2023-04-24T04:21:40;6.80;91.40
12125;DHT22;6126;57.908;16.490;2023-04-24T04:24:06;6.80;91.40
12125;DHT22;6126;57.908;16.490;2023-04-24T04:26:32;6.90;91.50
12125;DHT22;6126;57.908;16.490;2023-04-24T04:28:59;6.60;91.30
12125;DHT22;6126;57.908;16.490;2023-04-24T04:31:26;6.70;91.30
12125;DHT22;6126;57.908;16.490;2023-04-24T04:33:52;6.80;91.10
12125;DHT22;6126;57.908;16.490;2023-04-24T04:36:18;6.60;91.30
12125;DHT22;6126;57.908;16.490;2023-04-24T04:38:44;6.80;91.40
12125;DHT22;6126;57.908;16.490;2023-04-24T04:41:10;6.70;91.40
12125;DHT22;6126;57.908;16.490;2023-04-24T04:43:36;6.90;91.40
12125;DHT22;6126;57.908;16.490;2023-04-24T04:46:03;7.00;91.40
12125;DHT22;6126;57.908;16.490;2023-04-24T04:48:29;7.00;91.40
12125;DHT22;6126;57.908;16.490;2023-04-24T04:50:57;6.70;91.40
12125;DHT22;6126;57.908;16.490;2023-04-24T04:53:23;6.80;91.40
12125;DHT22;6126;57.908;16.490;2023-04-24T04:55:49;6.80;91.40
12125;DHT22;6126;57.908;16.490;2023-04-24T04:58:15;6.80;91.40
12125;DHT22;6126;57.908;16.490;2023-04-24T05:00:41;7.10;91.60
12125;DHT22;6126;57.908;16.490;2023-04-24T05:03:07;7.10;91.60
12125;DHT22;6126;57.908;16.490;2023-04-24T05:05:33;6.90;91.40
12125;DHT22;6126;57.908;16.490;2023-04-24T05:07:59;7.00;91.50
12125;DHT22;6126;57.908;16.490;2023-04-24T05:10:25;6.90;91.40
12125;DHT22;6126;57.908;16.490;2023-04-24T05:12:51;7.20;91.50
12125;DHT22;6126;57.908;16.490;2023-04-24T05:15:17;7.10;91.50
12125;DHT22;6126;57.908;16.490;2023-04-24T05:17:43;7.10;91.50
12125;DHT22;6126;57.908;16.490;2023-04-24T05:20:09;7.30;91.50
12125;DHT22;6126;57.908;16.490;2023-04-24T05:22:35;7.10;91.50
12125;DHT22;6126;57.908;16.490;2023-04-24T05:25:01;7.20;91.50
12125;DHT22;6126;57.908;16.490;2023-04-24T05:27:28;7.10;91.40
12125;DHT22;6126;57.908;16.490;2023-04-24T05:29:54;7.40;91.50
12125;DHT22;6126;57.908;16.490;2023-04-24T05:32:20;7.20;91.40
12125;DHT22;6126;57.908;16.490;2023-04-24T05:34:45;7.30;91.50
12125;DHT22;6126;57.908;16.490;2023-04-24T05:37:11;7.40;91.60
12125;DHT22;6126;57.908;16.490;2023-04-24T05:39:38;7.10;91.50
12125;DHT22;6126;57.908;16.490;2023-04-24T05:42:04;7.40;91.70
12125;DHT22;6126;57.908;16.490;2023-04-24T05:44:31;7.40;91.70
12125;DHT22;6126;57.908;16.490;2023-04-24T05:46:56;7.20;91.50
12125;DHT22;6126;57.908;16.490;2023-04-24T05:49:23;7.40;91.50
12125;DHT22;6126;57.908;16.490;2023-04-24T05:51:48;7.50;91.70
12125;DHT22;6126;57.908;16.490;2023-04-24T05:54:14;7.40;91.40
12125;DHT22;6126;57.908;16.490;2023-04-24T05:56:40;7.30;91.60
12125;DHT22;6126;57.908;16.490;2023-04-24T05:59:07;7.40;91.60
12125;DHT22;6126;57.908;16.490;2023-04-24T06:01:33;7.70;91.70
12125;DHT22;6126;57.908;16.490;2023-04-24T06:03:59;7.70;91.60
12125;DHT22;6126;57.908;16.490;2023-04-24T06:06:26;7.80;91.70
12125;DHT22;6126;57.908;16.490;2023-04-24T06:08:52;7.80;91.70
12125;DHT22;6126;57.908;16.490;2023-04-24T06:11:18;7.60;91.60
12125;DHT22;6126;57.908;16.490;2023-04-24T06:13:45;7.70;91.60
12125;DHT22;6126;57.908;16.490;2023-04-24T06:16:11;7.90;91.70
12125;DHT22;6126;57.908;16.490;2023-04-24T06:18:36;7.80;91.60
12125;DHT22;6126;57.908;16.490;2023-04-24T06:21:03;7.80;91.50
12125;DHT22;6126;57.908;16.490;2023-04-24T06:23:29;7.70;91.50
12125;DHT22;6126;57.908;16.490;2023-04-24T06:25:57;7.60;91.40
12125;DHT22;6126;57.908;16.490;2023-04-24T06:28:24;7.80;91.50
12125;DHT22;6126;57.908;16.490;2023-04-24T06:30:50;7.90;92.00
12125;DHT22;6126;57.908;16.490;2023-04-24T06:33:16;8.00;91.60
12125;DHT22;6126;57.908;16.490;2023-04-24T06:35:42;8.00;91.60
12125;DHT22;6126;57.908;16.490;2023-04-24T06:38:08;8.00;91.50
12125;DHT22;6126;57.908;16.490;2023-04-24T06:40:34;7.90;91.40
12125;DHT22;6126;57.908;16.490;2023-04-24T06:43:00;8.20;91.50
12125;DHT22;6126;57.908;16.490;2023-04-24T06:45:28;8.30;91.50
12125;DHT22;6126;57.908;16.490;2023-04-24T06:47:55;8.30;91.50
12125;DHT22;6126;57.908;16.490;2023-04-24T06:50:21;8.10;91.50
12125;DHT22;6126;57.908;16.490;2023-04-24T06:52:47;8.30;91.40
12125;DHT22;6126;57.908;16.490;2023-04-24T06:55:13;8.30;91.40
12125;DHT22;6126;57.908;16.490;2023-04-24T06:57:42;8.40;91.20
12125;DHT22;6126;57.908;16.490;2023-04-24T07:00:08;8.30;91.10
12125;DHT22;6126;57.908;16.490;2023-04-24T07:02:35;8.40;91.40
12125;DHT22;6126;57.908;16.490;2023-04-24T07:05:01;8.20;91.20
12125;DHT22;6126;57.908;16.490;2023-04-24T07:07:27;8.20;91.40
12125;DHT22;6126;57.908;16.490;2023-04-24T07:09:53;8.30;91.60
12125;DHT22;6126;57.908;16.490;2023-04-24T07:12:19;8.40;91.60
12125;DHT22;6126;57.908;16.490;2023-04-24T07:14:47;8.20;91.40
12125;DHT22;6126;57.908;16.490;2023-04-24T07:17:13;8.20;91.30
12125;DHT22;6126;57.908;16.490;2023-04-24T07:19:40;8.40;91.40
12125;DHT22;6126;57.908;16.490;2023-04-24T07:22:06;8.20;91.20
12125;DHT22;6126;57.908;16.490;2023-04-24T07:24:32;8.40;91.50
12125;DHT22;6126;57.908;16.490;2023-04-24T07:26:58;8.20;91.50
12125;DHT22;6126;57.908;16.490;2023-04-24T07:29:24;8.50;91.40
12125;DHT22;6126;57.908;16.490;2023-04-24T07:31:50;8.40;91.30
12125;DHT22;6126;57.908;16.490;2023-04-24T07:34:16;8.50;91.30
12125;DHT22;6126;57.908;16.490;2023-04-24T07:36:42;8.60;91.20
12125;DHT22;6126;57.908;16.490;2023-04-24T07:39:08;8.90;91.30
12125;DHT22;6126;57.908;16.490;2023-04-24T07:41:34;8.90;91.30
12125;DHT22;6126;57.908;16.490;2023-04-24T07:44:00;9.10;91.30
12125;DHT22;6126;57.908;16.490;2023-04-24T07:46:26;8.90;91.00
12125;DHT22;6126;57.908;16.490;2023-04-24T07:48:55;8.90;91.00
12125;DHT22;6126;57.908;16.490;2023-04-24T07:51:21;8.80;91.00
12125;DHT22;6126;57.908;16.490;2023-04-24T07:53:47;8.70;91.00
12125;DHT22;6126;57.908;16.490;2023-04-24T07:56:13;8.90;91.20
12125;DHT22;6126;57.908;16.490;2023-04-24T07:58:39;8.80;91.10
12125;DHT22;6126;57.908;16.490;2023-04-24T08:01:05;8.60;91.00
12125;DHT22;6126;57.908;16.490;2023-04-24T08:03:32;8.80;91.10
12125;DHT22;6126;57.908;16.490;2023-04-24T08:05:57;8.70;91.10
12125;DHT22;6126;57.908;16.490;2023-04-24T08:08:24;8.70;91.30
12125;DHT22;6126;57.908;16.490;2023-04-24T08:10:50;8.90;91.30
12125;DHT22;6126;57.908;16.490;2023-04-24T08:13:16;8.90;91.20
12125;DHT22;6126;57.908;16.490;2023-04-24T08:15:42;8.70;91.10
12125;DHT22;6126;57.908;16.490;2023-04-24T08:18:08;8.80;91.10
12125;DHT22;6126;57.908;16.490;2023-04-24T08:20:34;9.00;91.30
12125;DHT22;6126;57.908;16.490;2023-04-24T08:23:00;9.00;91.20
12125;DHT22;6126;57.908;16.490;2023-04-24T08:25:26;9.00;91.20
12125;DHT22;6126;57.908;16.490;2023-04-24T08:27:52;9.00;91.20
12125;DHT22;6126;57.908;16.490;2023-04-24T08:30:18;9.20;91.20
12125;DHT22;6126;57.908;16.490;2023-04-24T08:32:44;9.40;91.20
12125;DHT22;6126;57.908;16.490;2023-04-24T08:35:10;9.60;91.20
12125;DHT22;6126;57.908;16.490;2023-04-24T08:37:36;9.60;91.10
12125;DHT22;6126;57.908;16.490;2023-04-24T08:40:14;9.60;91.00
12125;DHT22;6126;57.908;16.490;2023-04-24T08:42:42;9.80;91.10
12125;DHT22;6126;57.908;16.490;2023-04-24T08:45:11;10.00;90.60
12125;DHT22;6126;57.908;16.490;2023-04-24T08:47:39;9.90;91.00
12125;DHT22;6126;57.908;16.490;2023-04-24T08:50:07;10.10;90.50
12125;DHT22;6126;57.908;16.490;2023-04-24T08:52:34;10.10;90.40
12125;DHT22;6126;57.908;16.490;2023-04-24T08:55:01;10.00;90.30
12125;DHT22;6126;57.908;16.490;2023-04-24T08:57:28;10.10;90.30
12125;DHT22;6126;57.908;16.490;2023-04-24T08:59:56;10.00;90.40
12125;DHT22;6126;57.908;16.490;2023-04-24T09:02:24;10.00;90.40
12125;DHT22;6126;57.908;16.490;2023-04-24T09:04:51;10.20;90.50
12125;DHT22;6126;57.908;16.490;2023-04-24T09:07:19;10.40;90.60
12125;DHT22;6126;57.908;16.490;2023-04-24T09:09:50;10.30;90.50
12125;DHT22;6126;57.908;16.490;2023-04-24T09:12:17;10.40;90.60
12125;DHT22;6126;57.908;16.490;2023-04-24T09:14:45;10.50;90.50
12125;DHT22;6126;57.908;16.490;2023-04-24T09:17:11;11.00;90.50
12125;DHT22;6126;57.908;16.490;2023-04-24T09:19:38;11.30;90.40
12125;DHT22;6126;57.908;16.490;2023-04-24T09:22:07;11.30;90.20
12125;DHT22;6126;57.908;16.490;2023-04-24T09:24:35;11.70;90.20
12125;DHT22;6126;57.908;16.490;2023-04-24T09:27:01;11.70;90.00
12125;DHT22;6126;57.908;16.490;2023-04-24T09:29:28;12.00;89.80
12125;DHT22;6126;57.908;16.490;2023-04-24T09:31:54;11.90;89.80
12125;DHT22;6126;57.908;16.490;2023-04-24T09:34:22;12.10;89.80
12125;DHT22;6126;57.908;16.490;2023-04-24T09:36:50;12.00;89.30
12125;DHT22;6126;57.908;16.490;2023-04-24T09:39:16;12.30;89.20
12125;DHT22;6126;57.908;16.490;2023-04-24T09:41:55;12.30;88.90
12125;DHT22;6126;57.908;16.490;2023-04-24T09:44:27;12.10;88.90
12125;DHT22;6126;57.908;16.490;2023-04-24T09:46:55;12.10;89.20
12125;DHT22;6126;57.908;16.490;2023-04-24T09:49:29;11.80;89.00
12125;DHT22;6126;57.908;16.490;2023-04-24T09:52:11;12.20;89.60
12125;DHT22;6126;57.908;16.490;2023-04-24T09:54:38;12.10;89.50
12125;DHT22;6126;57.908;16.490;2023-04-24T09:57:07;12.40;89.30
12125;DHT22;6126;57.908;16.490;2023-04-24T09:59:34;12.90;89.40
12125;DHT22;6126;57.908;16.490;2023-04-24T10:02:00;12.90;88.90
12125;DHT22;6126;57.908;16.490;2023-04-24T10:04:28;13.00;88.40
12125;DHT22;6126;57.908;16.490;2023-04-24T10:06:57;13.20;88.00
12125;DHT22;6126;57.908;16.490;2023-04-24T10:09:25;13.20;87.70
12125;DHT22;6126;57.908;16.490;2023-04-24T10:11:53;13.20;87.30
12125;DHT22;6126;57.908;16.490;2023-04-24T10:14:23;13.10;87.10
12125;DHT22;6126;57.908;16.490;2023-04-24T10:16:53;12.90;86.80
12125;DHT22;6126;57.908;16.490;2023-04-24T10:19:20;12.60;87.20
12125;DHT22;6126;57.908;16.490;2023-04-24T10:21:46;12.70;87.80
12125;DHT22;6126;57.908;16.490;2023-04-24T10:24:14;12.60;88.00
12125;DHT22;6126;57.908;16.490;2023-04-24T10:26:42;12.30;87.70
12125;DHT22;6126;57.908;16.490;2023-04-24T10:29:10;12.60;87.50
12125;DHT22;6126;57.908;16.490;2023-04-24T10:31:38;12.40;87.30
12125;DHT22;6126;57.908;16.490;2023-04-24T10:34:06;11.90;87.10
12125;DHT22;6126;57.908;16.490;2023-04-24T10:36:34;12.00;87.60
12125;DHT22;6126;57.908;16.490;2023-04-24T10:39:02;11.90;87.70
12125;DHT22;6126;57.908;16.490;2023-04-24T10:41:32;11.70;87.50
12125;DHT22;6126;57.908;16.490;2023-04-24T10:46:34;11.90;88.20
12125;DHT22;6126;57.908;16.490;2023-04-24T10:49:04;12.10;87.70
12125;DHT22;6126;57.908;16.490;2023-04-24T10:51:51;12.10;87.30
12125;DHT22;6126;57.908;16.490;2023-04-24T10:54:34;12.10;87.10
12125;DHT22;6126;57.908;16.490;2023-04-24T10:57:31;12.20;87.20
12125;DHT22;6126;57.908;16.490;2023-04-24T11:00:14;12.30;87.00
12125;DHT22;6126;57.908;16.490;2023-04-24T11:02:46;12.40;86.90
12125;DHT22;6126;57.908;16.490;2023-04-24T11:05:16;12.60;87.00
12125;DHT22;6126;57.908;16.490;2023-04-24T11:08:13;12.50;86.70
12125;DHT22;6126;57.908;16.490;2023-04-24T11:13:23;12.60;86.40
12125;DHT22;6126;57.908;16.490;2023-04-24T11:19:07;12.60;85.70
12125;DHT22;6126;57.908;16.490;2023-04-24T11:22:04;12.40;85.70
12125;DHT22;6126;57.908;16.490;2023-04-24T11:24:49;12.50;85.90
12125;DHT22;6126;57.908;16.490;2023-04-24T11:27:21;12.60;85.80
12125;DHT22;6126;57.908;16.490;2023-04-24T11:35:22;12.80;85.40
12125;DHT22;6126;57.908;16.490;2023-04-24T11:37:52;12.80;85.50
12125;DHT22;6126;57.908;16.490;2023-04-24T11:40:20;12.90;85.00
12125;DHT22;6126;57.908;16.490;2023-04-24T11:42:52;12.90;84.70
12125;DHT22;6126;57.908;16.490;2023-04-24T11:45:25;12.90;84.60
12125;DHT22;6126;57.908;16.490;2023-04-24T11:47:53;12.80;84.60
12125;DHT22;6126;57.908;16.490;2023-04-24T11:50:22;12.50;84.50
12125;DHT22;6126;57.908;16.490;2023-04-24T11:52:51;12.40;84.70
12125;DHT22;6126;57.908;16.490;2023-04-24T11:57:50;12.60;85.10
12125;DHT22;6126;57.908;16.490;2023-04-24T12:00:21;12.60;84.60
12125;DHT22;6126;57.908;16.490;2023-04-24T12:03:07;13.10;84.70
12125;DHT22;6126;57.908;16.490;2023-04-24T12:05:37;12.80;83.90
12125;DHT22;6126;57.908;16.490;2023-04-24T12:08:04;13.00;84.20
12125;DHT22;6126;57.908;16.490;2023-04-24T12:10:32;13.00;84.20
12125;DHT22;6126;57.908;16.490;2023-04-24T12:12:59;13.20;84.30
12125;DHT22;6126;57.908;16.490;2023-04-24T12:15:26;13.30;84.00
12125;DHT22;6126;57.908;16.490;2023-04-24T12:17:53;13.50;83.50
12125;DHT22;6126;57.908;16.490;2023-04-24T12:20:32;13.60;83.00
12125;DHT22;6126;57.908;16.490;2023-04-24T12:22:59;14.00;82.70
12125;DHT22;6126;57.908;16.490;2023-04-24T12:25:28;14.00;82.10
12125;DHT22;6126;57.908;16.490;2023-04-24T12:30:32;13.90;81.50
12125;DHT22;6126;57.908;16.490;2023-04-24T12:33:04;13.80;82.00
12125;DHT22;6126;57.908;16.490;2023-04-24T12:35:32;13.50;82.20
12125;DHT22;6126;57.908;16.490;2023-04-24T12:38:14;13.40;82.30
12125;DHT22;6126;57.908;16.490;2023-04-24T12:40:42;12.90;82.20
12125;DHT22;6126;57.908;16.490;2023-04-24T12:43:19;12.80;82.70
12125;DHT22;6126;57.908;16.490;2023-04-24T12:45:49;12.80;83.10
12125;DHT22;6126;57.908;16.490;2023-04-24T12:48:15;12.80;83.30
12125;DHT22;6126;57.908;16.490;2023-04-24T12:50:41;12.70;83.00
12125;DHT22;6126;57.908;16.490;2023-04-24T12:53:08;12.40;82.90
12125;DHT22;6126;57.908;16.490;2023-04-24T12:55:35;12.40;83.20
12125;DHT22;6126;57.908;16.490;2023-04-24T12:58:01;12.00;83.00
12125;DHT22;6126;57.908;16.490;2023-04-24T13:00:28;11.80;83.20
12125;DHT22;6126;57.908;16.490;2023-04-24T13:02:54;12.10;83.90
12125;DHT22;6126;57.908;16.490;2023-04-24T13:05:20;12.00;83.80
12125;DHT22;6126;57.908;16.490;2023-04-24T13:07:46;11.70;83.40
12125;DHT22;6126;57.908;16.490;2023-04-24T13:10:12;11.70;83.50
12125;DHT22;6126;57.908;16.490;2023-04-24T13:12:39;11.50;83.30
12125;DHT22;6126;57.908;16.490;2023-04-24T13:15:06;11.80;83.80
12125;DHT22;6126;57.908;16.490;2023-04-24T13:17:32;11.90;83.90
12125;DHT22;6126;57.908;16.490;2023-04-24T13:19:58;11.90;83.60
12125;DHT22;6126;57.908;16.490;2023-04-24T13:22:25;12.40;83.60
12125;DHT22;6126;57.908;16.490;2023-04-24T13:24:51;12.30;82.90
12125;DHT22;6126;57.908;16.490;2023-04-24T13:27:17;12.60;82.80
12125;DHT22;6126;57.908;16.490;2023-04-24T13:29:43;12.50;82.70
12125;DHT22;6126;57.908;16.490;2023-04-24T13:32:09;12.30;82.50
12125;DHT22;6126;57.908;16.490;2023-04-24T13:34:35;12.10;82.30
12125;DHT22;6126;57.908;16.490;2023-04-24T13:37:02;12.40;82.40
12125;DHT22;6126;57.908;16.490;2023-04-24T13:39:31;12.30;82.40
12125;DHT22;6126;57.908;16.490;2023-04-24T13:41:58;12.20;82.40
12125;DHT22;6126;57.908;16.490;2023-04-24T13:44:24;12.20;82.50
12125;DHT22;6126;57.908;16.490;2023-04-24T13:46:52;11.80;82.30
12125;DHT22;6126;57.908;16.490;2023-04-24T13:49:22;12.00;82.80
12125;DHT22;6126;57.908;16.490;2023-04-24T13:51:51;12.00;83.00
12125;DHT22;6126;57.908;16.490;2023-04-24T13:54:17;11.90;82.70
12125;DHT22;6126;57.908;16.490;2023-04-24T13:56:43;12.00;82.60
12125;DHT22;6126;57.908;16.490;2023-04-24T13:59:11;11.90;82.60
12125;DHT22;6126;57.908;16.490;2023-04-24T14:01:38;11.90;82.40
12125;DHT22;6126;57.908;16.490;2023-04-24T14:04:04;11.80;82.50
12125;DHT22;6126;57.908;16.490;2023-04-24T14:06:30;11.70;82.50
12125;DHT22;6126;57.908;16.490;2023-04-24T14:08:56;11.60;82.60
12125;DHT22;6126;57.908;16.490;2023-04-24T14:11:22;12.00;83.10
12125;DHT22;6126;57.908;16.490;2023-04-24T14:13:49;11.60;82.50
12125;DHT22;6126;57.908;16.490;2023-04-24T14:16:15;11.70;82.60
12125;DHT22;6126;57.908;16.490;2023-04-24T14:18:41;12.00;82.70
12125;DHT22;6126;57.908;16.490;2023-04-24T14:21:07;11.80;82.40
12125;DHT22;6126;57.908;16.490;2023-04-24T14:23:33;11.50;82.20
12125;DHT22;6126;57.908;16.490;2023-04-24T14:25:59;11.80;82.60
12125;DHT22;6126;57.908;16.490;2023-04-24T14:28:25;11.50;82.40
12125;DHT22;6126;57.908;16.490;2023-04-24T14:30:52;11.50;82.30
12125;DHT22;6126;57.908;16.490;2023-04-24T14:33:19;11.30;82.40
12125;DHT22;6126;57.908;16.490;2023-04-24T14:35:46;11.20;82.70
12125;DHT22;6126;57.908;16.490;2023-04-24T14:38:12;11.20;82.80
12125;DHT22;6126;57.908;16.490;2023-04-24T14:40:38;11.20;83.10
12125;DHT22;6126;57.908;16.490;2023-04-24T14:43:03;11.10;83.30
12125;DHT22;6126;57.908;16.490;2023-04-24T14:45:29;11.10;83.50
12125;DHT22;6126;57.908;16.490;2023-04-24T14:47:56;11.10;83.10
12125;DHT22;6126;57.908;16.490;2023-04-24T14:50:22;11.00;83.10
12125;DHT22;6126;57.908;16.490;2023-04-24T14:52:48;10.70;83.10
12125;DHT22;6126;57.908;16.490;2023-04-24T14:55:14;10.70;83.50
12125;DHT22;6126;57.908;16.490;2023-04-24T14:57:40;10.40;83.40
12125;DHT22;6126;57.908;16.490;2023-04-24T15:00:07;10.80;83.80
12125;DHT22;6126;57.908;16.490;2023-04-24T15:02:36;10.50;83.50
12125;DHT22;6126;57.908;16.490;2023-04-24T15:05:06;10.70;83.80
12125;DHT22;6126;57.908;16.490;2023-04-24T15:07:33;10.60;83.60
12125;DHT22;6126;57.908;16.490;2023-04-24T15:09:59;10.50;83.60
12125;DHT22;6126;57.908;16.490;2023-04-24T15:12:25;10.60;83.90
12125;DHT22;6126;57.908;16.490;2023-04-24T15:14:50;10.40;83.70
12125;DHT22;6126;57.908;16.490;2023-04-24T15:17:16;10.60;83.80
12125;DHT22;6126;57.908;16.490;2023-04-24T15:19:42;10.60;83.70
12125;DHT22;6126;57.908;16.490;2023-04-24T15:22:09;10.90;84.00
12125;DHT22;6126;57.908;16.490;2023-04-24T15:24:35;10.50;83.60
12125;DHT22;6126;57.908;16.490;2023-04-24T15:27:01;10.70;83.70
12125;DHT22;6126;57.908;16.490;2023-04-24T15:29:27;10.60;83.80
12125;DHT22;6126;57.908;16.490;2023-04-24T15:31:54;10.80;84.20
12125;DHT22;6126;57.908;16.490;2023-04-24T15:34:20;10.60;84.00
12125;DHT22;6126;57.908;16.490;2023-04-24T15:36:46;10.50;84.00
12125;DHT22;6126;57.908;16.490;2023-04-24T15:39:12;10.30;83.70
12125;DHT22;6126;57.908;16.490;2023-04-24T15:41:38;10.60;84.00
12125;DHT22;6126;57.908;16.490;2023-04-24T15:44:04;10.40;84.00
12125;DHT22;6126;57.908;16.490;2023-04-24T15:46:30;10.30;84.00
12125;DHT22;6126;57.908;16.490;2023-04-24T15:48:56;10.20;83.80
12125;DHT22;6126;57.908;16.490;2023-04-24T15:51:22;10.20;84.20
12125;DHT22;6126;57.908;16.490;2023-04-24T15:53:48;10.00;84.50
12125;DHT22;6126;57.908;16.490;2023-04-24T15:56:14;9.70;85.50
12125;DHT22;6126;57.908;16.490;2023-04-24T15:58:40;9.90;85.80